FAMM/MBD METAR and TAF weather

Enter ICAO airport designator
Station Type Date Time Source
FAMM METAR 2022/01/26 08:00 UTC NOAA

FAMM 260800Z 05013KT CAVOK 26/16 Q1020 NOSIG


Station Type Date Time Source
FAMM Decoded METAR 2022/01/26 08:00 UTC NOAA

Mafikeng Intl. Ad, South Africa (FAMM) 25-47S 025-32E 1300M
Jan 26, 2022 - 03:00 AM EST / 2022.01.26 0800 UTC
Wind: from the NE (050 degrees) at 15 MPH (13 KT):0
Visibility: greater than 7 mile(s):0
Temperature: 78 F (26 C)
Dew Point: 60 F (16 C)
Relative Humidity: 54%
Pressure (altimeter): 30.12 in. Hg (1020 hPa)
ob: FAMM 260800Z 05013KT CAVOK 26/16 Q1020 NOSIG
cycle: 8

Station Type Date Time Source
FAMM TAF 2021/06/04 04:45 UTC NOAA

TAF TAF FAMM 040440Z 0404/0418 VRB03KT CAVOK TX20/0412Z TN02/0405Z
FM040800 05008KT 9999 SCT040
BECMG 0410/0412 VRB03KT CAVOK

Example: see airport list